Time;durP1;ratioP1;P1;durP2;ratioP2;P2;SDS_P1;SDS_P2;PMS_P1;PMS_P2;Temp;Humidity;BMP_temperature;BMP_pressure;BME280_temperature;BME280_humidity;BME280_pressure;Samples;Min_cycle;Max_cycle;Signal;HPM_P1;HPM_P2
2023/06/30 00:05:10;;;;;;;40.58;25.42;;;17.90;99.90;;;;;;12443338;28;20050;-86
2023/06/30 00:11:14;;;;;;;35.45;22.60;;;17.70;99.90;;;;;;12439750;28;20097;-87
2023/06/30 00:17:17;;;;;;;28.83;17.90;;;17.60;99.90;;;;;;12446336;28;20057;-87
2023/06/30 00:23:33;;;;;;;21.88;13.77;;;17.40;99.90;;;;;;12436840;28;20049;-87
2023/06/30 00:29:37;;;;;;;16.23;10.52;;;17.60;99.90;;;;;;12446085;28;20100;-87
2023/06/30 00:35:39;;;;;;;16.67;8.93;;;17.30;99.90;;;;;;12426590;28;20247;-84
2023/06/30 00:41:42;;;;;;;16.05;8.02;;;17.00;99.90;;;;;;12428548;28;20090;-86
2023/06/30 00:47:45;;;;;;;14.73;7.35;;;17.10;99.90;;;;;;12448299;28;20113;-85
2023/06/30 00:53:49;;;;;;;10.83;7.10;;;17.00;99.90;;;;;;12439935;28;20413;-86
2023/06/30 00:59:52;;;;;;;14.47;7.23;;;17.00;99.90;;;;;;12452808;28;20049;-85
2023/06/30 01:06:03;;;;;;;12.20;6.87;;;16.90;99.90;;;;;;12430003;28;20049;-86
2023/06/30 01:12:06;;;;;;;9.95;6.82;;;17.10;99.90;;;;;;12457538;28;20062;-85
2023/06/30 01:18:13;;;;;;;10.60;6.32;;;16.90;99.90;;;;;;12442278;28;20050;-86
2023/06/30 01:24:24;;;;;;;9.98;6.07;;;16.80;99.90;;;;;;12455487;28;20046;-86
2023/06/30 01:30:29;;;;;;;10.90;6.45;;;17.10;99.90;;;;;;12460717;28;20620;-86
2023/06/30 01:36:36;;;;;;;13.82;7.30;;;17.20;99.90;;;;;;12448992;28;20919;-87
2023/06/30 01:42:40;;;;;;;12.75;6.72;;;17.10;99.90;;;;;;12427209;28;20042;-87
2023/06/30 01:48:43;;;;;;;8.20;6.10;;;17.20;99.90;;;;;;12425641;28;20054;-87
2023/06/30 01:54:54;;;;;;;14.52;7.65;;;17.20;99.90;;;;;;12437830;28;20042;-86
2023/06/30 02:01:03;;;;;;;18.50;7.60;;;16.90;99.90;;;;;;12424680;28;20054;-87
2023/06/30 02:07:11;;;;;;;13.55;7.78;;;16.90;99.90;;;;;;12436771;28;20065;-86
2023/06/30 02:13:15;;;;;;;13.55;7.13;;;16.90;99.90;;;;;;12437001;28;20049;-86
2023/06/30 02:19:20;;;;;;;12.60;7.28;;;17.00;99.90;;;;;;12444646;28;20058;-86
2023/06/30 02:25:26;;;;;;;11.18;6.43;;;16.80;99.90;;;;;;12426698;28;20068;-86
2023/06/30 02:31:29;;;;;;;11.43;6.03;;;16.70;99.90;;;;;;12430226;28;20050;-86
2023/06/30 02:37:34;;;;;;;9.13;4.30;;;16.70;99.90;;;;;;12418807;28;20050;-86
2023/06/30 02:43:45;;;;;;;12.70;4.80;;;16.70;99.90;;;;;;12438777;28;20069;-86
2023/06/30 02:49:50;;;;;;;10.98;5.35;;;16.50;99.90;;;;;;12437407;28;20061;-85
2023/06/30 02:55:56;;;;;;;10.52;5.60;;;16.40;99.90;;;;;;12427519;28;20085;-85
2023/06/30 03:02:02;;;;;;;12.80;5.75;;;16.30;99.90;;;;;;12410776;28;20061;-86
2023/06/30 03:08:10;;;;;;;7.40;5.47;;;16.60;99.90;;;;;;12448319;28;20404;-86
2023/06/30 03:14:13;;;;;;;5.85;4.78;;;16.70;99.90;;;;;;12441745;28;20056;-85
2023/06/30 03:20:16;;;;;;;10.37;5.27;;;16.60;99.90;;;;;;12429646;28;20466;-85
2023/06/30 03:26:19;;;;;;;9.87;5.70;;;16.60;99.90;;;;;;12415234;28;20191;-85
2023/06/30 03:32:32;;;;;;;9.68;5.60;;;16.70;99.90;;;;;;12433638;28;20175;-86
2023/06/30 03:38:40;;;;;;;14.35;5.63;;;16.70;99.90;;;;;;12433605;28;20070;-85
2023/06/30 03:44:45;;;;;;;9.52;4.40;;;16.30;99.90;;;;;;12434396;28;20040;-84
2023/06/30 03:50:52;;;;;;;8.45;4.40;;;16.10;99.90;;;;;;12433361;28;20517;-84
2023/06/30 03:56:57;;;;;;;9.13;4.25;;;16.00;99.90;;;;;;12430488;28;20131;-85
2023/06/30 04:03:00;;;;;;;7.53;4.88;;;16.10;99.90;;;;;;12422660;28;20097;-86
2023/06/30 04:09:08;;;;;;;7.63;4.43;;;15.90;99.90;;;;;;12447918;28;20062;-88
2023/06/30 04:15:13;;;;;;;7.15;5.22;;;15.70;99.90;;;;;;12418496;28;20065;-87
2023/06/30 04:21:36;;;;;;;11.32;5.85;;;15.80;99.90;;;;;;12430923;28;20050;-87
2023/06/30 04:28:01;;;;;;;13.00;5.78;;;15.50;99.90;;;;;;12429347;28;20054;-87
2023/06/30 04:34:10;;;;;;;8.50;5.57;;;15.70;99.90;;;;;;12444164;28;20050;-87
2023/06/30 04:40:19;;;;;;;9.90;5.93;;;15.70;99.90;;;;;;12441211;28;20049;-88
2023/06/30 04:46:30;;;;;;;8.07;5.28;;;15.80;99.90;;;;;;12445836;28;20050;-88
2023/06/30 04:52:51;;;;;;;8.70;5.45;;;15.80;99.90;;;;;;12437931;28;20050;-88
2023/06/30 04:59:01;;;;;;;7.93;5.20;;;15.50;99.90;;;;;;12462937;28;20592;-87
2023/06/30 05:05:14;;;;;;;11.75;5.60;;;15.80;99.90;;;;;;12435873;28;20061;-88
2023/06/30 05:11:20;;;;;;;8.60;5.20;;;15.70;99.90;;;;;;12442677;28;20054;-88
2023/06/30 05:17:34;;;;;;;5.72;4.97;;;15.90;99.90;;;;;;12438304;28;20049;-88
2023/06/30 05:23:39;;;;;;;10.88;5.53;;;15.70;99.90;;;;;;12432674;28;20053;-88
2023/06/30 05:29:42;;;;;;;8.73;6.20;;;15.60;99.90;;;;;;12459085;28;20060;-88
2023/06/30 05:35:46;;;;;;;7.45;5.68;;;15.70;99.90;;;;;;12447886;28;20040;-88
2023/06/30 05:42:01;;;;;;;7.72;5.93;;;15.50;99.90;;;;;;12463799;28;20042;-88
2023/06/30 05:48:09;;;;;;;10.85;6.47;;;15.70;99.90;;;;;;12440522;28;20152;-87
2023/06/30 05:54:40;;;;;;;13.93;7.10;;;15.60;99.90;;;;;;12438034;28;20081;-87
2023/06/30 06:00:49;;;;;;;11.68;7.40;;;15.80;99.90;;;;;;12426198;28;20078;-89
2023/06/30 06:07:01;;;;;;;12.90;7.22;;;15.90;99.90;;;;;;12453037;28;20049;-89
2023/06/30 06:13:06;;;;;;;13.57;6.72;;;15.70;99.90;;;;;;12449535;28;20058;-87
2023/06/30 06:19:11;;;;;;;11.75;6.68;;;15.80;99.90;;;;;;12459458;28;20145;-89
2023/06/30 06:25:19;;;;;;;10.35;5.88;;;15.90;99.90;;;;;;12420634;28;20046;-88
2023/06/30 06:31:45;;;;;;;13.02;6.05;;;15.70;99.90;;;;;;12446922;28;20049;-88
2023/06/30 06:37:48;;;;;;;9.50;6.13;;;15.80;99.90;;;;;;12447102;28;20089;-88
2023/06/30 06:43:51;;;;;;;11.90;5.78;;;15.60;99.90;;;;;;12444226;28;20205;-88
2023/06/30 06:49:57;;;;;;;11.55;5.50;;;15.80;99.90;;;;;;12435129;28;20145;-88
2023/06/30 06:56:01;;;;;;;12.97;5.33;;;15.70;99.90;;;;;;12441651;28;20053;-87
2023/06/30 07:02:05;;;;;;;7.25;4.70;;;15.70;99.90;;;;;;12437918;28;20095;-88
2023/06/30 07:08:12;;;;;;;18.35;5.53;;;15.70;99.90;;;;;;12423785;28;20050;-89
2023/06/30 07:14:20;;;;;;;10.57;4.93;;;15.90;99.90;;;;;;12446960;28;20054;-88
2023/06/30 07:20:25;;;;;;;7.32;3.85;;;16.00;99.90;;;;;;12446046;28;20049;-87
2023/06/30 07:26:40;;;;;;;8.30;3.40;;;16.20;99.90;;;;;;12457757;28;20050;-88
2023/06/30 07:32:49;;;;;;;12.52;3.92;;;16.10;99.90;;;;;;12422633;28;20106;-87
2023/06/30 07:39:01;;;;;;;7.60;2.90;;;15.90;99.90;;;;;;12431615;28;20059;-86
2023/06/30 07:45:46;;;;;;;9.15;2.90;;;15.80;99.90;;;;;;12409421;28;20060;-87
2023/06/30 07:51:53;;;;;;;5.95;2.10;;;16.10;99.90;;;;;;12441454;28;20128;-87
2023/06/30 07:58:39;;;;;;;8.45;3.00;;;16.00;99.90;;;;;;12438218;28;20050;-84
2023/06/30 08:04:41;;;;;;;5.78;2.45;;;16.20;99.90;;;;;;12421370;28;20509;-85
2023/06/30 08:11:06;;;;;;;9.77;2.60;;;16.50;99.90;;;;;;12404170;28;20620;-86
2023/06/30 08:17:09;;;;;;;8.20;1.98;;;16.30;99.90;;;;;;12435347;28;20046;-86
2023/06/30 08:23:29;;;;;;;6.00;1.80;;;16.40;99.90;;;;;;12406950;28;20738;-86
2023/06/30 08:30:22;;;;;;;6.95;1.60;;;16.20;99.90;;;;;;12408359;28;20525;-86
2023/06/30 08:36:32;;;;;;;5.60;1.77;;;16.10;99.90;;;;;;12407737;28;20053;-85
2023/06/30 08:42:51;;;;;;;7.63;2.08;;;16.50;99.90;;;;;;12448404;28;20053;-85
2023/06/30 08:49:29;;;;;;;8.02;1.88;;;16.70;99.90;;;;;;12432960;28;20045;-85
2023/06/30 09:03:09;;;;;;;;;;;;;;;;;;;;;
2023/06/30 09:16:22;;;;;;;5.80;1.70;;;17.70;99.90;;;;;;12322237;28;20061;-85
2023/06/30 09:22:42;;;;;;;4.97;1.88;;;17.30;99.90;;;;;;12326759;28;20325;-84
2023/06/30 09:29:08;;;;;;;12.25;2.13;;;17.10;99.90;;;;;;12361658;28;20097;-86
2023/06/30 09:35:16;;;;;;;8.15;1.60;;;17.50;99.90;;;;;;12365676;28;20053;-85
2023/06/30 09:41:28;;;;;;;5.65;1.50;;;17.80;99.90;;;;;;12454753;28;20049;-85
2023/06/30 09:47:38;;;;;;;3.88;1.13;;;18.40;99.90;;;;;;12468685;28;20042;-85
2023/06/30 09:53:41;;;;;;;4.28;1.20;;;17.90;99.90;;;;;;12427629;28;20098;-85
2023/06/30 09:59:48;;;;;;;11.13;1.52;;;18.20;99.90;;;;;;12443882;28;20061;-85
2023/06/30 10:05:55;;;;;;;5.70;1.23;;;19.40;99.90;;;;;;12433260;28;20146;-85
2023/06/30 10:12:04;;;;;;;9.15;1.63;;;19.10;99.90;;;;;;12441873;28;20070;-84
2023/06/30 10:18:13;;;;;;;5.40;1.50;;;18.80;99.90;;;;;;12437191;28;20057;-83
2023/06/30 10:24:54;;;;;;;;;;;;;;;;;;;;;
2023/06/30 10:31:18;;;;;;;3.15;1.25;;;18.80;99.90;;;;;;12419036;28;20138;-84
2023/06/30 10:37:27;;;;;;;6.82;1.67;;;19.10;99.90;;;;;;12437598;28;20050;-85
2023/06/30 10:44:54;;;;;;;3.28;1.50;;;19.00;99.90;;;;;;12432767;28;20034;-85
2023/06/30 10:50:57;;;;;;;7.18;2.38;;;19.10;99.90;;;;;;12396050;28;20418;-82
2023/06/30 10:57:21;;;;;;;5.82;2.35;;;19.00;99.90;;;;;;12443816;28;20536;-84
2023/06/30 11:03:56;;;;;;;5.68;2.00;;;19.70;99.90;;;;;;12438582;28;20479;-84
2023/06/30 11:10:12;;;;;;;4.60;2.50;;;20.30;99.90;;;;;;12413065;28;20054;-84
2023/06/30 11:16:18;;;;;;;2.50;1.40;;;20.60;99.90;;;;;;12442054;28;20051;-85
2023/06/30 11:22:58;;;;;;;5.68;2.30;;;20.60;99.90;;;;;;12422500;28;20160;-86
2023/06/30 11:29:17;;;;;;;3.92;2.28;;;20.70;99.90;;;;;;12446359;28;20057;-85
2023/06/30 11:35:23;;;;;;;3.03;1.90;;;20.30;99.90;;;;;;12420685;28;20054;-85
2023/06/30 11:41:38;;;;;;;3.65;1.60;;;20.30;99.90;;;;;;12439582;28;20046;-85
2023/06/30 11:48:00;;;;;;;4.43;1.80;;;20.00;99.90;;;;;;12439459;28;20042;-84
2023/06/30 11:54:20;;;;;;;3.97;2.03;;;20.40;99.90;;;;;;12453021;28;20520;-86
2023/06/30 12:00:25;;;;;;;6.43;2.70;;;21.20;99.90;;;;;;12453327;28;20045;-86
2023/06/30 12:06:28;;;;;;;4.13;1.70;;;21.30;99.90;;;;;;12434840;28;20064;-85
2023/06/30 12:12:36;;;;;;;3.95;2.15;;;21.10;99.90;;;;;;12419657;28;20050;-86
2023/06/30 12:18:51;;;;;;;5.00;2.20;;;21.20;99.90;;;;;;12440922;28;20073;-84
2023/06/30 12:24:59;;;;;;;7.32;1.98;;;20.80;99.90;;;;;;12431010;28;20472;-86
2023/06/30 12:31:08;;;;;;;4.75;2.00;;;20.50;99.90;;;;;;12430716;28;20144;-86
2023/06/30 12:37:18;;;;;;;5.40;2.40;;;20.20;99.90;;;;;;12439194;28;20091;-85
2023/06/30 12:49:53;;;;;;;3.20;2.00;;;20.10;99.90;;;;;;12415266;28;20046;-87
2023/06/30 12:55:58;;;;;;;3.30;1.80;;;20.60;99.90;;;;;;12410457;28;20062;-87
2023/06/30 13:02:16;;;;;;;4.38;1.85;;;20.70;99.90;;;;;;12432679;28;20052;-87
2023/06/30 13:08:22;;;;;;;9.25;2.05;;;21.10;99.90;;;;;;12438050;28;20049;-85
2023/06/30 13:14:31;;;;;;;3.90;1.50;;;21.30;99.90;;;;;;12427186;28;20046;-85
2023/06/30 13:20:35;;;;;;;2.25;1.17;;;20.80;99.90;;;;;;12448956;28;20107;-85
2023/06/30 13:26:41;;;;;;;4.65;1.40;;;20.40;99.90;;;;;;12459927;28;20441;-86
2023/06/30 13:32:45;;;;;;;3.42;1.00;;;20.60;99.90;;;;;;12457138;28;20145;-84
2023/06/30 13:38:54;;;;;;;2.70;1.05;;;20.60;99.90;;;;;;12452071;28;20050;-86
2023/06/30 13:45:01;;;;;;;5.43;1.30;;;20.90;99.90;;;;;;12436292;28;20038;-84
2023/06/30 13:51:03;;;;;;;3.25;1.33;;;21.20;99.90;;;;;;12421235;28;20049;-85
2023/06/30 13:57:07;;;;;;;3.57;1.40;;;21.50;99.90;;;;;;12442745;28;20042;-84
2023/06/30 14:03:17;;;;;;;5.30;1.80;;;21.10;99.90;;;;;;12446747;28;20046;-84
2023/06/30 14:09:27;;;;;;;7.60;2.45;;;21.20;99.90;;;;;;12432656;28;20104;-84
2023/06/30 14:15:39;;;;;;;3.17;1.75;;;21.60;99.90;;;;;;12434802;28;20049;-84
2023/06/30 14:22:02;;;;;;;4.85;1.65;;;21.40;99.90;;;;;;12431130;28;20050;-84
2023/06/30 14:28:10;;;;;;;3.10;1.52;;;21.30;99.90;;;;;;12430958;28;20183;-83
2023/06/30 14:34:12;;;;;;;3.20;1.83;;;20.80;99.90;;;;;;12431997;28;20072;-84
2023/06/30 14:40:29;;;;;;;2.97;1.33;;;20.60;99.90;;;;;;12418525;28;20056;-84
2023/06/30 14:46:45;;;;;;;2.80;1.10;;;20.90;99.90;;;;;;12434800;28;20100;-85
2023/06/30 14:52:48;;;;;;;3.58;1.40;;;20.80;99.90;;;;;;12421046;28;20101;-84
2023/06/30 14:58:54;;;;;;;4.72;1.80;;;20.60;99.90;;;;;;12424098;28;20046;-84
2023/06/30 15:05:11;;;;;;;3.05;1.38;;;20.50;99.90;;;;;;12404687;28;20047;-84
2023/06/30 15:11:41;;;;;;;3.60;1.20;;;20.50;99.90;;;;;;12419265;28;20058;-83
2023/06/30 15:17:47;;;;;;;3.00;1.10;;;20.60;99.90;;;;;;12446458;28;20050;-83
2023/06/30 15:23:57;;;;;;;2.88;1.20;;;20.40;99.90;;;;;;12434845;28;20064;-85
2023/06/30 15:30:12;;;;;;;4.05;1.50;;;20.10;99.90;;;;;;12427594;28;20088;-85
2023/06/30 15:36:18;;;;;;;5.20;1.50;;;20.10;99.90;;;;;;12432981;28;20053;-83
2023/06/30 15:42:31;;;;;;;4.38;1.20;;;20.00;99.90;;;;;;12442335;28;20054;-84
2023/06/30 15:48:37;;;;;;;5.30;1.70;;;20.20;99.90;;;;;;12419378;28;20140;-84
2023/06/30 15:54:43;;;;;;;5.22;1.85;;;20.50;99.90;;;;;;12439472;28;20042;-84
2023/06/30 16:00:46;;;;;;;;;;;20.60;99.90;;;;;;12425222;28;20055;-84
2023/06/30 16:07:04;;;;;;;3.40;1.23;;;20.50;99.90;;;;;;12431977;28;19937;-84
2023/06/30 16:13:34;;;;;;;4.95;0.93;;;20.40;99.90;;;;;;12415576;28;20042;-85
2023/06/30 16:19:51;;;;;;;3.78;1.33;;;20.50;99.90;;;;;;12423582;28;20057;-84
2023/06/30 16:26:03;;;;;;;3.38;1.10;;;20.40;99.90;;;;;;12413113;28;20053;-85
2023/06/30 16:32:12;;;;;;;7.32;1.20;;;20.50;99.90;;;;;;12433917;28;20088;-84
2023/06/30 16:38:21;;;;;;;2.97;1.05;;;20.70;99.90;;;;;;12437524;28;20053;-84
2023/06/30 16:44:38;;;;;;;4.35;0.98;;;21.00;99.90;;;;;;12445387;28;20046;-83
2023/06/30 16:50:48;;;;;;;3.13;1.17;;;20.90;99.90;;;;;;12422622;28;20056;-84
2023/06/30 16:56:56;;;;;;;2.38;0.80;;;20.80;99.90;;;;;;12425246;28;20414;-85
2023/06/30 17:03:02;;;;;;;1.73;0.80;;;20.80;99.90;;;;;;12427229;28;20050;-85
2023/06/30 17:09:14;;;;;;;3.45;1.00;;;20.80;99.90;;;;;;12428252;28;21013;-85
2023/06/30 17:15:54;;;;;;;3.85;1.00;;;20.50;99.90;;;;;;12430350;28;20047;-85
2023/06/30 17:22:13;;;;;;;4.07;1.10;;;20.40;99.90;;;;;;12435049;28;20072;-85
2023/06/30 17:28:17;;;;;;;4.07;1.30;;;20.40;99.90;;;;;;12453260;28;20056;-84
2023/06/30 17:34:22;;;;;;;4.00;1.13;;;20.60;99.90;;;;;;12445008;28;20052;-84
2023/06/30 17:40:42;;;;;;;2.17;1.02;;;20.70;99.90;;;;;;12441435;28;20132;-84
2023/06/30 17:46:51;;;;;;;5.50;1.17;;;20.80;99.90;;;;;;12437185;28;20053;-84
2023/06/30 17:59:44;;;;;;;2.47;1.00;;;21.30;99.90;;;;;;12419194;28;20042;-85
2023/06/30 18:05:46;;;;;;;3.22;1.00;;;21.30;99.90;;;;;;12424399;28;20086;-86
2023/06/30 18:11:52;;;;;;;2.70;0.90;;;21.50;99.90;;;;;;12449026;28;20053;-85
2023/06/30 18:18:04;;;;;;;3.80;1.00;;;21.70;99.90;;;;;;12452023;28;20084;-85
2023/06/30 18:24:20;;;;;;;3.55;1.33;;;21.30;99.90;;;;;;12418733;28;20117;-84
2023/06/30 18:30:23;;;;;;;4.70;1.10;;;20.70;99.90;;;;;;12437778;28;20077;-85
2023/06/30 18:36:29;;;;;;;2.20;0.97;;;20.50;99.90;;;;;;12438941;28;20042;-84
2023/06/30 18:42:32;;;;;;;2.72;1.20;;;20.30;99.90;;;;;;12446423;28;20057;-85
2023/06/30 18:48:43;;;;;;;2.75;1.00;;;20.30;99.90;;;;;;12416257;28;20042;-85
2023/06/30 18:55:03;;;;;;;5.40;1.10;;;20.20;99.90;;;;;;12429927;28;20202;-85
2023/06/30 19:01:10;;;;;;;2.90;1.10;;;20.10;99.90;;;;;;12432396;28;20042;-84
2023/06/30 19:07:16;;;;;;;3.13;1.20;;;20.00;99.90;;;;;;12441320;28;20362;-85
2023/06/30 19:13:25;;;;;;;2.97;1.00;;;19.80;99.90;;;;;;12437531;28;20057;-85
2023/06/30 19:19:30;;;;;;;2.17;0.88;;;19.70;99.90;;;;;;12429555;28;20053;-85
2023/06/30 19:25:48;;;;;;;7.15;1.23;;;19.50;99.90;;;;;;12400533;28;20056;-85
2023/06/30 19:32:10;;;;;;;3.55;1.20;;;19.40;99.90;;;;;;12414068;28;20045;-85
2023/06/30 19:38:16;;;;;;;2.60;1.33;;;19.20;99.90;;;;;;12425039;28;20052;-85
2023/06/30 19:44:21;;;;;;;3.25;0.90;;;19.10;99.90;;;;;;12442580;28;20050;-85
2023/06/30 19:50:27;;;;;;;5.13;1.48;;;18.90;99.90;;;;;;12421515;28;20042;-85
2023/06/30 19:56:35;;;;;;;2.55;1.20;;;18.70;99.90;;;;;;12420363;28;20133;-86
2023/06/30 20:02:42;;;;;;;4.18;1.35;;;18.50;99.90;;;;;;12422752;28;20421;-85
2023/06/30 20:08:47;;;;;;;3.47;1.38;;;18.30;99.90;;;;;;12421754;28;20422;-85
2023/06/30 20:14:51;;;;;;;3.15;1.30;;;18.20;99.90;;;;;;12399585;28;20051;-85
2023/06/30 20:20:54;;;;;;;2.80;1.02;;;18.10;99.90;;;;;;12421066;28;20050;-85
